Time;durP1;ratioP1;P1;durP2;ratioP2;P2;SDS_P1;SDS_P2;PMS_P1;PMS_P2;Temp;Humidity;BMP_temperature;BMP_pressure;BME280_temperature;BME280_humidity;BME280_pressure;Samples;Min_cycle;Max_cycle;Signal;HPM_P1;HPM_P2
2020/12/26 00:00:34;;;;;;;8.52;4.50;;;5.20;99.90;;;4.16;78.58;102862.00;4119238;28;20513;-70
2020/12/26 00:02:35;;;;;;;9.63;5.57;;;5.10;99.90;;;4.40;78.03;102855.75;4086326;29;20036;-70
2020/12/26 00:04:36;;;;;;;11.82;6.07;;;5.20;99.90;;;4.48;77.83;102868.50;4086438;29;20567;-70
2020/12/26 00:06:37;;;;;;;7.28;4.70;;;5.20;99.90;;;4.75;76.99;102871.72;4102366;29;20107;-70
2020/12/26 00:08:38;;;;;;;6.28;4.20;;;5.20;99.90;;;4.84;76.13;102877.38;4102169;28;20506;-70
2020/12/26 00:10:39;;;;;;;7.40;4.20;;;5.30;99.90;;;4.97;75.70;102872.44;4119229;28;20398;-70
2020/12/26 00:12:40;;;;;;;11.68;5.10;;;5.40;99.90;;;5.09;74.40;102858.81;4119375;28;20061;-70
2020/12/26 00:14:41;;;;;;;7.30;4.25;;;5.50;99.90;;;5.03;74.75;102875.66;4119125;28;20656;-70
2020/12/26 00:16:41;;;;;;;5.97;4.00;;;5.60;99.90;;;4.83;75.42;102865.22;4119384;28;20036;-70
2020/12/26 00:18:43;;;;;;;5.82;4.22;;;5.50;99.90;;;4.83;75.82;102859.16;4102174;29;20506;-70
2020/12/26 00:20:44;;;;;;;7.47;4.15;;;5.50;99.90;;;4.81;75.39;102855.72;4119516;28;20027;-70
2020/12/26 00:22:45;;;;;;;7.85;4.20;;;5.50;99.90;;;4.78;75.97;102856.72;4102294;29;20052;-70
2020/12/26 00:24:46;;;;;;;5.82;4.22;;;5.50;99.90;;;4.73;76.51;102848.22;4119218;28;20117;-70
2020/12/26 00:26:47;;;;;;;8.07;3.63;;;5.50;99.90;;;4.39;77.40;102842.78;4119422;28;20031;-70
2020/12/26 00:28:48;;;;;;;6.57;4.47;;;5.40;99.90;;;4.60;77.29;102847.06;4119363;28;20042;-70
2020/12/26 00:30:48;;;;;;;6.28;4.50;;;5.40;99.90;;;4.77;76.71;102841.13;4102078;29;20030;-70
2020/12/26 00:32:49;;;;;;;13.85;6.68;;;5.40;99.90;;;4.71;77.39;102831.78;4101988;29;20058;-70
2020/12/26 00:34:50;;;;;;;12.93;8.50;;;5.40;99.90;;;4.94;77.21;102838.59;4119274;28;20106;-70
2020/12/26 00:36:51;;;;;;;10.30;6.57;;;5.60;99.90;;;4.80;77.32;102833.13;4119435;28;20403;-70
2020/12/26 00:38:52;;;;;;;8.43;5.00;;;5.50;99.90;;;4.97;76.77;102825.38;4119533;28;20174;-70
2020/12/26 00:40:53;;;;;;;9.40;5.50;;;5.50;99.90;;;5.18;76.79;102834.88;4102199;29;20035;-70
2020/12/26 00:42:53;;;;;;;6.72;4.45;;;5.60;99.90;;;5.16;75.82;102828.88;4119267;28;20039;-70
2020/12/26 00:44:55;;;;;;;7.10;4.18;;;5.60;99.90;;;5.12;76.42;102835.16;4121943;28;20051;-70
2020/12/26 00:46:56;;;;;;;8.70;4.75;;;5.60;99.90;;;5.10;77.00;102837.00;4122647;28;20034;-70
2020/12/26 00:48:57;;;;;;;9.32;5.82;;;5.60;99.90;;;5.15;76.75;102849.84;4124974;28;20486;-70
2020/12/26 00:50:58;;;;;;;14.02;7.80;;;5.70;99.90;;;5.32;76.88;102853.38;4105267;29;20213;-70
2020/12/26 00:52:58;;;;;;;11.75;5.70;;;5.70;99.90;;;5.33;76.75;102856.84;4122386;28;20082;-70
2020/12/26 00:54:59;;;;;;;11.13;5.25;;;5.70;99.90;;;5.21;76.45;102854.81;4122396;28;20022;-70
2020/12/26 00:57:00;;;;;;;8.60;5.30;;;5.80;99.90;;;5.30;75.92;102852.63;4122232;28;20027;-70
2020/12/26 00:59:01;;;;;;;8.23;4.70;;;5.70;99.90;;;5.11;76.89;102838.66;4122325;28;20022;-70
2020/12/26 01:01:03;;;;;;;8.57;5.35;;;5.70;99.90;;;5.13;76.91;102842.09;4104698;29;20027;-70
2020/12/26 01:03:03;;;;;;;5.78;4.40;;;5.70;99.90;;;5.13;76.77;102822.91;4105170;29;20094;-70
2020/12/26 01:05:05;;;;;;;6.90;4.18;;;5.70;99.90;;;5.12;77.08;102829.91;4122237;28;20031;-70
2020/12/26 01:07:06;;;;;;;5.03;4.25;;;5.70;99.90;;;5.10;76.59;102831.75;4104934;29;20122;-70
2020/12/26 01:09:07;;;;;;;8.00;4.57;;;5.70;99.90;;;5.16;76.46;102844.56;4121862;28;20038;-70
2020/12/26 01:11:08;;;;;;;6.85;4.35;;;5.70;99.90;;;5.30;75.67;102843.91;4122146;28;20031;-70
2020/12/26 01:13:09;;;;;;;6.93;4.10;;;5.70;99.90;;;5.32;75.83;102837.69;4104913;29;20542;-70
2020/12/26 01:15:10;;;;;;;5.68;3.47;;;5.80;99.90;;;5.39;75.25;102839.13;4104587;29;20028;-70
2020/12/26 01:17:11;;;;;;;5.95;3.60;;;5.90;99.90;;;5.43;75.74;102824.13;4121909;28;20031;-70
2020/12/26 01:19:12;;;;;;;4.78;3.78;;;5.90;99.90;;;5.31;76.82;102836.00;4104942;29;20031;-70
2020/12/26 01:21:14;;;;;;;7.20;3.20;;;5.90;99.90;;;5.22;76.71;102831.19;4121926;28;20026;-70
2020/12/26 01:23:14;;;;;;;5.40;3.38;;;5.80;99.90;;;5.15;77.33;102821.94;4088771;29;20073;-70
2020/12/26 01:25:15;;;;;;;5.63;3.75;;;5.80;99.90;;;5.14;77.61;102822.00;4104536;28;20054;-70
2020/12/26 01:27:17;;;;;;;6.25;3.60;;;5.80;99.90;;;5.13;77.36;102810.69;4120666;28;20062;-70
2020/12/26 01:29:19;;;;;;;6.13;3.83;;;5.70;99.90;;;5.20;77.44;102816.47;4088416;29;20407;-70
2020/12/26 01:31:20;;;;;;;4.05;3.00;;;5.70;99.90;;;5.16;77.49;102822.78;4104670;29;20031;-70
2020/12/26 01:33:20;;;;;;;4.57;3.35;;;5.70;99.90;;;5.22;77.27;102836.44;4104496;29;20478;-70
2020/12/26 01:35:21;;;;;;;5.63;3.42;;;5.60;99.90;;;5.19;77.63;102826.09;4121865;28;20066;-70
2020/12/26 01:37:22;;;;;;;3.53;3.15;;;5.70;99.90;;;5.21;77.58;102823.41;4121773;28;20038;-70
2020/12/26 01:39:24;;;;;;;7.50;3.15;;;5.70;99.90;;;4.91;78.57;102820.41;4104531;29;20091;-70
2020/12/26 01:41:25;;;;;;;7.28;3.60;;;5.70;99.90;;;4.71;79.20;102807.41;4121259;28;20030;-70
2020/12/26 01:43:25;;;;;;;6.18;3.20;;;5.60;99.90;;;4.76;79.43;102813.25;4121781;28;20117;-70
2020/12/26 01:45:26;;;;;;;6.05;4.00;;;5.50;99.90;;;4.86;79.58;102811.94;4104196;29;20043;-70
2020/12/26 01:47:27;;;;;;;7.90;3.70;;;5.40;99.90;;;4.70;79.85;102795.22;4122022;28;20505;-70
2020/12/26 01:49:29;;;;;;;4.53;3.20;;;5.40;99.90;;;4.84;79.75;102790.22;4106374;28;20032;-70
2020/12/26 01:51:31;;;;;;;4.72;3.28;;;5.40;99.90;;;4.78;79.47;102798.38;4104324;28;20027;-70
2020/12/26 01:53:32;;;;;;;8.32;4.00;;;5.40;99.90;;;4.74;79.68;102786.34;4104387;29;20069;-70
2020/12/26 01:55:33;;;;;;;5.40;3.90;;;5.30;99.90;;;4.73;79.41;102788.09;4103953;28;20043;-70
2020/12/26 01:57:35;;;;;;;7.32;3.22;;;5.30;99.90;;;4.61;79.55;102793.88;4121289;28;20714;-70
2020/12/26 01:59:36;;;;;;;8.20;3.85;;;5.10;99.90;;;4.54;80.31;102789.81;4121201;28;20023;-70
2020/12/26 02:01:40;;;;;;;7.55;4.60;;;5.10;99.90;;;4.54;79.71;102794.22;4104302;29;20027;-70
2020/12/26 02:03:41;;;;;;;6.80;5.07;;;5.10;99.90;;;4.54;80.26;102795.06;4121241;28;20027;-70
2020/12/26 02:05:42;;;;;;;7.45;4.93;;;5.00;99.90;;;4.51;80.10;102786.53;4104048;29;20302;-70
2020/12/26 02:07:46;;;;;;;8.77;4.78;;;4.90;99.90;;;4.36;80.53;102796.69;4121354;28;20042;-70
2020/12/26 02:09:47;;;;;;;4.40;3.17;;;4.90;99.90;;;4.32;81.04;102795.16;4103967;28;20094;-70
2020/12/26 02:11:48;;;;;;;3.80;3.40;;;4.80;99.90;;;4.41;81.10;102799.13;4104093;29;20027;-70
2020/12/26 02:13:49;;;;;;;5.50;3.20;;;4.90;99.90;;;4.49;80.10;102794.41;4103989;28;20087;-70
2020/12/26 02:16:19;;;;;;;5.63;3.70;;;4.90;99.90;;;4.27;80.78;102788.44;4103778;28;20031;-70
2020/12/26 02:18:20;;;;;;;5.55;3.30;;;4.90;99.90;;;4.32;80.19;102789.06;4091865;29;20039;-70
2020/12/26 02:20:21;;;;;;;5.38;4.18;;;4.80;99.90;;;4.19;80.88;102788.75;4103789;29;20034;-70
2020/12/26 02:22:22;;;;;;;7.95;3.88;;;4.70;99.90;;;4.13;81.82;102777.69;4104068;29;20103;-70
2020/12/26 02:24:23;;;;;;;7.18;4.97;;;4.70;99.90;;;4.29;80.93;102781.38;4121142;28;20027;-70
2020/12/26 02:26:29;;;;;;;6.03;4.65;;;4.70;99.90;;;4.28;81.50;102777.06;4103914;29;20082;-70
2020/12/26 02:28:30;;;;;;;6.40;4.75;;;4.80;99.90;;;4.22;81.99;102783.38;4121232;28;20037;-70
2020/12/26 02:30:31;;;;;;;6.85;4.38;;;4.80;99.90;;;4.20;82.51;102774.78;4103644;29;20031;-70
2020/12/26 02:32:32;;;;;;;7.45;3.97;;;4.80;99.90;;;4.31;82.02;102777.78;4120907;28;20038;-70
2020/12/26 02:34:32;;;;;;;6.63;3.83;;;4.90;99.90;;;4.37;81.44;102767.06;4120700;28;20513;-70
2020/12/26 02:36:37;;;;;;;5.10;4.30;;;4.90;99.90;;;4.38;81.71;102771.38;4103584;29;20038;-70
2020/12/26 02:38:38;;;;;;;;;;;4.90;99.90;;;4.31;82.41;102762.09;4088179;29;20026;-70
2020/12/26 02:40:38;;;;;;;5.50;4.05;;;4.90;99.90;;;4.40;82.36;102766.94;4103358;29;20406;-70
2020/12/26 02:42:39;;;;;;;8.43;4.40;;;5.00;99.90;;;4.48;82.41;102759.59;4120616;28;20050;-70
2020/12/26 02:44:40;;;;;;;5.97;3.65;;;5.00;99.90;;;4.51;82.47;102750.75;4120420;28;20027;-70
2020/12/26 02:46:42;;;;;;;4.65;3.38;;;5.00;99.90;;;4.60;81.38;102750.34;4120749;28;20038;-70
2020/12/26 02:48:43;;;;;;;8.00;4.40;;;5.10;99.90;;;4.67;81.35;102743.09;4103424;28;20035;-70
2020/12/26 02:50:43;;;;;;;5.63;4.00;;;5.10;99.90;;;4.88;79.91;102742.13;4103429;29;20086;-70
2020/12/26 02:52:44;;;;;;;6.05;3.47;;;5.20;99.90;;;4.95;79.93;102740.91;4120488;28;20027;-70
2020/12/26 02:54:45;;;;;;;6.80;3.55;;;5.30;99.90;;;4.89;79.93;102736.81;4120575;28;20109;-70
2020/12/26 02:56:46;;;;;;;5.15;3.42;;;5.40;99.90;;;4.85;79.78;102742.25;4103148;29;20027;-70
2020/12/26 02:58:47;;;;;;;5.78;3.30;;;5.40;99.90;;;4.88;79.33;102731.66;4120505;28;20082;-70
2020/12/26 03:00:49;;;;;;;4.38;3.30;;;5.40;99.90;;;4.91;79.81;102740.22;4119134;28;20023;-70
2020/12/26 03:02:50;;;;;;;4.80;3.53;;;5.40;99.90;;;4.91;80.33;102734.13;4103469;28;20027;-70
2020/12/26 03:04:50;;;;;;;5.07;3.40;;;5.50;99.90;;;4.88;80.60;102747.34;4120582;28;20023;-70
2020/12/26 03:06:51;;;;;;;6.93;3.28;;;5.40;99.90;;;4.85;81.02;102737.88;4119538;28;20034;-70
2020/12/26 03:08:52;;;;;;;5.35;3.63;;;5.50;99.90;;;4.84;81.27;102740.53;4103064;29;20475;-70
2020/12/26 03:10:53;;;;;;;5.88;3.63;;;5.50;99.90;;;4.91;80.88;102737.59;4087183;29;20399;-70
2020/12/26 03:12:54;;;;;;;7.35;4.63;;;5.50;99.90;;;4.99;81.19;102732.84;4118923;28;20026;-70
2020/12/26 03:14:55;;;;;;;5.90;4.65;;;5.50;99.90;;;4.86;81.05;102733.50;4102600;29;20138;-70
2020/12/26 03:16:56;;;;;;;6.88;4.10;;;5.60;99.90;;;4.93;80.88;102738.38;4087052;29;20024;-70
2020/12/26 03:18:56;;;;;;;6.20;3.80;;;5.60;99.90;;;5.03;80.69;102736.16;4119970;28;20027;-70
2020/12/26 03:20:57;;;;;;;4.60;3.60;;;5.60;99.90;;;5.11;80.54;102739.28;4120172;28;20027;-70
2020/12/26 03:22:58;;;;;;;6.30;3.80;;;5.60;99.90;;;5.15;80.24;102739.97;4086959;29;20023;-70
2020/12/26 03:24:59;;;;;;;5.13;4.22;;;5.70;99.90;;;5.14;79.74;102728.66;4102793;29;20027;-70
2020/12/26 03:27:00;;;;;;;8.18;4.85;;;5.70;99.90;;;5.18;79.91;102730.22;4119863;28;20027;-70
2020/12/26 03:29:01;;;;;;;7.45;4.13;;;5.70;99.90;;;5.28;79.64;102726.25;4120084;28;20101;-70
2020/12/26 03:31:03;;;;;;;6.45;3.83;;;5.80;99.90;;;5.13;79.81;102719.13;4102640;29;20035;-70
2020/12/26 03:33:05;;;;;;;4.45;3.58;;;5.70;99.90;;;5.10;80.29;102707.97;4119860;28;20577;-70
2020/12/26 03:35:06;;;;;;;8.07;4.97;;;5.70;99.90;;;5.15;80.79;102716.44;4119733;28;20023;-70
2020/12/26 03:37:07;;;;;;;4.13;3.72;;;5.70;99.90;;;5.23;80.68;102720.38;4102811;29;20024;-70
2020/12/26 03:39:08;;;;;;;4.40;3.65;;;5.70;99.90;;;4.93;80.65;102720.06;4119740;28;20042;-70
2020/12/26 03:41:09;;;;;;;4.38;3.08;;;5.70;99.90;;;4.97;80.65;102705.94;4131566;28;20014;-70
2020/12/26 03:43:10;;;;;;;5.20;3.85;;;5.60;99.90;;;5.04;80.62;102706.50;4120166;28;20027;-70
2020/12/26 03:45:11;;;;;;;9.18;4.50;;;5.70;99.90;;;4.80;81.36;102712.88;4102242;29;20031;-70
2020/12/26 03:47:12;;;;;;;6.75;3.42;;;5.60;99.90;;;4.60;82.43;102720.78;4119681;28;20431;-70
2020/12/26 03:49:13;;;;;;;5.55;3.28;;;5.60;99.90;;;4.61;82.82;102714.63;4122122;28;20049;-70
2020/12/26 03:51:14;;;;;;;6.20;3.60;;;5.50;99.90;;;4.53;82.64;102695.81;4102516;29;20035;-70
2020/12/26 03:53:15;;;;;;;6.28;3.33;;;5.50;99.90;;;4.72;82.41;102699.31;4102704;29;20039;-70
2020/12/26 03:55:15;;;;;;;4.43;3.42;;;5.50;99.90;;;4.56;82.99;102701.78;4119688;28;20035;-70
2020/12/26 03:57:16;;;;;;;6.20;3.92;;;5.50;99.90;;;4.64;82.99;102702.25;4119414;28;20034;-70
2020/12/26 03:59:18;;;;;;;6.80;3.30;;;5.50;99.90;;;4.61;83.24;102707.63;4086231;29;20578;-70
2020/12/26 04:01:19;;;;;;;6.28;3.30;;;5.40;99.90;;;4.70;82.29;102688.91;4102742;29;20038;-70
2020/12/26 04:03:19;;;;;;;6.32;3.55;;;5.50;99.90;;;4.45;83.43;102681.34;4102436;29;20027;-70
2020/12/26 04:05:21;;;;;;;5.75;3.60;;;5.40;99.90;;;4.60;82.65;102676.34;4118457;28;20054;-69
2020/12/26 04:07:22;;;;;;;8.35;3.45;;;5.40;99.90;;;4.61;82.72;102670.19;4119495;28;20069;-69
2020/12/26 04:09:23;;;;;;;6.95;3.38;;;5.40;99.90;;;4.78;82.05;102671.09;4102451;29;20036;-70
2020/12/26 04:11:24;;;;;;;5.03;3.83;;;5.50;99.90;;;4.82;82.24;102679.66;4102515;29;20035;-69
2020/12/26 04:13:25;;;;;;;5.60;3.53;;;5.50;99.90;;;4.80;83.16;102676.25;4119542;28;20074;-70
2020/12/26 04:15:26;;;;;;;4.80;4.13;;;5.50;99.90;;;4.57;84.01;102674.69;4101867;29;20031;-69
2020/12/26 04:17:27;;;;;;;7.95;4.05;;;5.40;99.90;;;4.67;83.34;102670.75;4102889;28;20030;-69
2020/12/26 04:19:28;;;;;;;4.72;3.50;;;5.40;99.90;;;4.69;83.75;102676.75;4105555;29;20028;-69
2020/12/26 04:21:29;;;;;;;4.07;3.38;;;5.50;99.90;;;4.81;83.66;102678.78;4122732;28;20030;-69
2020/12/26 04:23:30;;;;;;;6.50;3.45;;;5.50;99.90;;;4.98;83.81;102685.84;4122668;28;20031;-70
2020/12/26 04:25:31;;;;;;;6.70;3.38;;;5.50;99.90;;;4.90;83.45;102680.13;4105523;29;20035;-69
2020/12/26 04:27:31;;;;;;;6.68;4.00;;;5.60;99.90;;;4.81;83.58;102681.41;4089543;29;20035;-69
2020/12/26 04:29:32;;;;;;;6.22;3.05;;;5.60;99.90;;;4.90;83.55;102667.06;4121193;28;20413;-70
2020/12/26 04:31:33;;;;;;;6.20;3.13;;;5.60;99.90;;;5.07;83.21;102674.09;4121536;28;20031;-70
2020/12/26 04:33:34;;;;;;;6.10;2.97;;;5.60;99.90;;;4.87;82.75;102651.50;4122586;28;20023;-69
2020/12/26 04:35:35;;;;;;;5.57;3.72;;;5.60;99.90;;;5.04;82.95;102662.03;4122485;28;20035;-70
2020/12/26 04:37:36;;;;;;;5.68;4.10;;;5.60;99.90;;;5.07;82.04;102668.88;4122524;28;20044;-70
2020/12/26 04:39:37;;;;;;;6.65;3.78;;;5.60;99.90;;;5.04;82.89;102664.66;4105519;29;20031;-69
2020/12/26 04:41:38;;;;;;;4.57;3.28;;;5.70;99.90;;;5.04;82.35;102659.41;4109482;28;20475;-70
2020/12/26 04:43:39;;;;;;;3.97;3.22;;;5.70;99.90;;;5.10;82.65;102664.34;4089446;29;20036;-69
2020/12/26 04:45:41;;;;;;;4.93;3.65;;;5.70;99.90;;;5.18;83.13;102669.19;4104937;28;20023;-70
2020/12/26 04:48:04;;;;;;;5.40;3.40;;;5.80;99.90;;;5.12;82.70;102674.72;4105184;28;20506;-69
2020/12/26 04:50:06;;;;;;;6.63;3.97;;;5.80;99.90;;;5.00;82.97;102665.69;4111276;28;20427;-69
2020/12/26 04:52:10;;;;;;;4.35;3.10;;;5.70;99.90;;;5.01;82.31;102659.56;4105168;29;20648;-69
2020/12/26 04:54:23;;;;;;;;;;;5.80;99.90;;;4.91;82.96;102666.13;4089648;29;20107;-69
2020/12/26 04:56:31;;;;;;;5.90;3.30;;;5.70;99.90;;;4.97;82.28;102653.63;4122355;28;19965;-70
2020/12/26 04:58:38;;;;;;;6.60;3.95;;;5.70;99.90;;;4.79;83.39;102664.94;4089341;29;20039;-70
2020/12/26 05:00:40;;;;;;;5.97;3.63;;;5.70;99.90;;;4.76;83.47;102656.41;4105092;28;20054;-69
2020/12/26 05:02:42;;;;;;;7.28;3.40;;;5.60;99.90;;;4.92;82.93;102649.53;4088995;29;20031;-70
2020/12/26 05:04:43;;;;;;;4.72;2.88;;;5.60;99.90;;;4.93;82.84;102656.44;4105080;29;20538;-69
2020/12/26 05:06:53;;;;;;;4.60;2.90;;;5.60;99.90;;;4.89;82.99;102658.38;4122247;28;20042;-69
2020/12/26 05:08:54;;;;;;;5.75;3.00;;;5.60;99.90;;;4.97;82.36;102644.94;4105149;28;20039;-69
2020/12/26 05:10:55;;;;;;;9.23;3.63;;;5.60;99.90;;;5.06;81.92;102644.47;4105181;28;20034;-70
2020/12/26 05:12:56;;;;;;;4.75;3.58;;;5.70;99.90;;;5.11;81.78;102639.06;4104859;28;20037;-69
2020/12/26 05:15:02;;;;;;;12.15;3.90;;;5.70;99.90;;;4.98;81.96;102639.63;4120599;28;20023;-70
2020/12/26 05:17:03;;;;;;;5.05;2.72;;;5.70;99.90;;;4.85;82.74;102640.28;4121924;28;20494;-70
2020/12/26 05:19:04;;;;;;;6.63;2.58;;;5.70;99.90;;;5.03;81.52;102636.78;4104996;29;20035;-69
2020/12/26 05:21:05;;;;;;;3.05;2.58;;;5.70;99.90;;;4.92;82.33;102636.47;4088822;29;20031;-69
2020/12/26 05:23:18;;;;;;;4.57;2.63;;;5.70;99.90;;;4.88;82.76;102637.53;4120826;28;20103;-70
2020/12/26 05:25:19;;;;;;;3.55;2.72;;;5.70;99.90;;;4.64;83.99;102639.53;4104705;28;20087;-70
2020/12/26 05:27:25;;;;;;;6.13;3.30;;;5.60;99.90;;;4.45;84.37;102644.75;4122145;28;20033;-70
2020/12/26 05:29:28;;;;;;;6.65;3.33;;;5.60;99.90;;;4.53;84.81;102654.88;4120696;28;20031;-70
2020/12/26 05:31:55;;;;;;;8.20;3.80;;;5.50;99.90;;;4.65;84.05;102648.22;4104375;29;20039;-69
2020/12/26 05:34:08;;;;;;;6.60;3.83;;;5.50;99.90;;;4.68;84.08;102641.09;4089355;29;20028;-70
2020/12/26 05:36:09;;;;;;;6.18;3.40;;;5.50;99.90;;;4.72;84.05;102637.41;4104418;29;20043;-69
2020/12/26 05:38:25;;;;;;;6.97;3.13;;;5.50;99.90;;;4.45;85.91;102647.38;4104463;28;20098;-70
2020/12/26 05:40:26;;;;;;;5.53;3.47;;;5.50;99.90;;;4.61;85.05;102655.34;4128037;28;20086;-70
2020/12/26 05:42:28;;;;;;;6.32;3.30;;;5.50;99.90;;;4.70;84.75;102638.38;4127934;28;20075;-70
2020/12/26 05:44:37;;;;;;;7.50;3.45;;;5.50;99.90;;;4.64;84.66;102639.53;4121191;28;20479;-69
2020/12/26 05:46:56;;;;;;;6.32;3.88;;;5.60;99.90;;;4.32;85.83;102643.63;4104477;29;20019;-70
2020/12/26 05:48:57;;;;;;;5.68;3.10;;;5.40;99.90;;;4.33;86.39;102634.84;4107706;28;20099;-69
2020/12/26 05:51:01;;;;;;;7.32;3.55;;;5.40;99.90;;;4.23;86.80;102636.22;4104384;29;20027;-69
2020/12/26 05:53:02;;;;;;;6.25;3.40;;;5.30;99.90;;;4.20;87.14;102628.50;4104533;28;20402;-69
2020/12/26 05:55:17;;;;;;;5.30;3.28;;;5.30;99.90;;;4.28;86.94;102638.59;4104323;28;20478;-69
2020/12/26 05:57:19;;;;;;;6.50;3.72;;;5.20;99.90;;;4.31;86.49;102626.25;4104656;28;20486;-70
2020/12/26 05:59:25;;;;;;;5.97;3.20;;;5.20;99.90;;;4.25;86.64;102616.09;4120884;28;20039;-69
2020/12/26 06:01:26;;;;;;;4.38;3.22;;;5.20;99.90;;;4.29;85.86;102617.66;4104277;29;20115;-69
2020/12/26 06:03:33;;;;;;;5.40;3.17;;;5.20;99.90;;;4.31;86.46;102614.94;4104293;29;20027;-70
2020/12/26 06:05:35;;;;;;;5.38;3.22;;;5.00;99.90;;;3.99;87.34;102608.59;4089275;28;20035;-69
2020/12/26 06:07:37;;;;;;;7.03;4.22;;;4.90;99.90;;;3.85;88.00;102616.19;4104296;28;20037;-70
2020/12/26 06:09:39;;;;;;;4.45;3.92;;;4.80;99.90;;;3.83;88.56;102612.78;4104033;29;20598;-69
2020/12/26 06:11:43;;;;;;;6.78;3.92;;;4.70;99.90;;;3.75;88.69;102612.25;4120103;28;20031;-70
2020/12/26 06:13:45;;;;;;;5.82;3.53;;;4.60;99.90;;;3.63;89.41;102620.63;4104114;28;20118;-70
2020/12/26 06:15:56;;;;;;;4.20;3.40;;;4.60;99.90;;;3.61;89.86;102612.88;4103839;28;20035;-69
2020/12/26 06:18:00;;;;;;;5.22;3.60;;;4.50;99.90;;;3.68;88.70;102624.72;4121175;28;20110;-70
2020/12/26 06:20:08;;;;;;;4.15;3.42;;;4.40;99.90;;;3.63;89.05;102618.00;4104038;28;20024;-69
2020/12/26 06:22:09;;;;;;;4.20;3.20;;;4.40;99.90;;;3.70;89.28;102616.84;4120911;28;20121;-70
2020/12/26 06:24:11;;;;;;;8.13;3.58;;;4.40;99.90;;;3.75;88.93;102609.66;4103986;29;20027;-70
2020/12/26 06:26:11;;;;;;;5.60;3.80;;;4.40;99.90;;;3.70;89.18;102611.63;4103926;28;20403;-70
2020/12/26 06:28:27;;;;;;;8.50;3.80;;;4.40;99.90;;;3.59;89.16;102619.03;4103826;28;20032;-70
2020/12/26 06:30:29;;;;;;;5.38;3.08;;;4.30;99.90;;;3.54;89.94;102621.00;4087895;29;20031;-69
2020/12/26 06:32:30;;;;;;;5.60;3.85;;;4.30;99.90;;;3.67;89.09;102633.50;4103804;28;20055;-69
2020/12/26 06:34:31;;;;;;;6.07;3.30;;;4.30;99.90;;;3.55;89.30;102626.19;4103941;29;20515;-70
2020/12/26 06:36:32;;;;;;;8.27;3.50;;;4.30;99.90;;;3.59;89.53;102617.28;4103494;29;20075;-70
2020/12/26 06:38:34;;;;;;;8.77;3.63;;;4.30;99.90;;;3.72;89.44;102625.44;4103671;29;20512;-70
2020/12/26 06:40:35;;;;;;;6.15;3.63;;;4.40;99.90;;;3.80;89.59;102639.00;4120652;28;20019;-69
2020/12/26 06:42:41;;;;;;;5.35;3.65;;;4.40;99.90;;;3.69;90.37;102631.66;4120644;28;20055;-70
2020/12/26 06:44:46;;;;;;;6.53;4.05;;;4.50;99.90;;;3.60;90.36;102632.03;4120411;28;20019;-70
2020/12/26 06:46:46;;;;;;;;;;;4.60;99.90;;;3.67;91.23;102633.50;4121173;28;20062;-70
2020/12/26 06:48:49;;;;;;;6.50;3.53;;;4.60;99.90;;;3.79;90.31;102637.31;4103465;28;19910;-70
2020/12/26 06:50:50;;;;;;;5.25;3.90;;;4.70;99.90;;;3.86;89.94;102641.34;4103514;29;20031;-70
2020/12/26 06:52:52;;;;;;;6.47;3.53;;;4.70;99.90;;;3.74;91.48;102642.72;4103327;29;20422;-69
2020/12/26 06:54:53;;;;;;;6.07;4.00;;;4.70;99.90;;;3.87;90.48;102643.06;4103508;28;20739;-69
2020/12/26 06:56:54;;;;;;;7.05;4.13;;;4.80;99.90;;;3.97;89.99;102646.97;4103337;29;20046;-69
2020/12/26 06:58:55;;;;;;;6.00;3.63;;;4.90;99.90;;;4.06;90.15;102651.75;4103224;28;20074;-69
2020/12/26 07:00:56;;;;;;;7.53;4.13;;;4.90;99.90;;;3.91;90.39;102653.28;4120037;28;20403;-70
2020/12/26 07:03:24;;;;;;;6.47;3.83;;;4.90;99.90;;;3.90;90.03;102650.75;4120435;28;20103;-70
2020/12/26 07:05:38;;;;;;;6.80;4.05;;;4.90;99.90;;;3.99;90.06;102649.50;4103766;28;20082;-70
2020/12/26 07:07:40;;;;;;;7.72;4.20;;;4.90;99.90;;;4.05;89.85;102655.31;4103218;29;20031;-70
2020/12/26 07:09:47;;;;;;;6.47;4.75;;;5.00;99.90;;;4.07;90.16;102648.25;4103217;28;20517;-70
2020/12/26 07:11:53;;;;;;;8.82;4.32;;;5.00;99.90;;;4.00;90.01;102657.28;4120231;28;20038;-69
2020/12/26 07:13:54;;;;;;;7.60;5.05;;;5.00;99.90;;;4.12;89.90;102666.34;4103074;28;20503;-69
2020/12/26 07:15:55;;;;;;;5.28;4.28;;;5.00;99.90;;;4.12;89.47;102651.50;4119962;28;20394;-70
2020/12/26 07:17:56;;;;;;;7.60;4.07;;;5.00;99.90;;;4.11;89.42;102659.41;4102814;29;20058;-70
2020/12/26 07:19:58;;;;;;;10.80;4.55;;;5.10;99.90;;;4.06;89.78;102661.38;4086951;29;20020;-70
2020/12/26 07:22:02;;;;;;;6.28;4.28;;;5.00;99.90;;;4.04;89.98;102653.59;4119821;28;20026;-70
2020/12/26 07:24:02;;;;;;;9.15;4.57;;;5.00;99.90;;;4.04;89.46;102652.75;4120058;28;20033;-70
2020/12/26 07:26:11;;;;;;;8.38;4.47;;;5.00;99.90;;;4.08;89.47;102634.28;4102726;29;20490;-69
2020/12/26 07:28:13;;;;;;;10.23;4.40;;;5.00;99.90;;;4.11;89.49;102639.38;4102740;28;20031;-69
2020/12/26 07:30:19;;;;;;;5.82;3.95;;;5.10;99.90;;;4.14;89.36;102643.59;4102481;29;20046;-69
2020/12/26 07:32:50;;;;;;;6.68;3.95;;;5.10;99.90;;;4.37;88.03;102652.09;4102814;29;20027;-70
2020/12/26 07:34:51;;;;;;;6.32;3.90;;;5.10;99.90;;;4.38;87.73;102655.56;4119816;28;20042;-70
2020/12/26 07:36:52;;;;;;;9.13;4.03;;;5.20;99.90;;;4.61;87.33;102641.44;4102573;29;20019;-70
2020/12/26 07:39:03;;;;;;;6.65;3.85;;;5.20;99.90;;;4.74;86.55;102639.94;4120062;28;20067;-69
2020/12/26 07:41:10;;;;;;;7.70;4.82;;;5.30;99.90;;;4.86;85.70;102644.59;4086567;29;20091;-69
2020/12/26 07:43:16;;;;;;;8.02;4.43;;;5.40;99.90;;;4.87;86.73;102649.75;4102554;28;20035;-70
2020/12/26 07:45:22;;;;;;;8.82;5.70;;;5.40;99.90;;;4.87;85.73;102646.28;4102522;28;20099;-69
2020/12/26 07:47:23;;;;;;;7.93;4.82;;;5.60;99.90;;;4.72;85.83;102636.56;4102885;28;20443;-70
2020/12/26 07:49:24;;;;;;;8.65;4.90;;;5.50;99.90;;;4.66;85.90;102621.19;4116826;28;20113;-70
2020/12/26 07:51:25;;;;;;;9.52;5.32;;;5.50;99.90;;;4.64;86.52;102625.59;4102688;29;20102;-70
2020/12/26 07:53:26;;;;;;;10.65;6.30;;;5.50;99.90;;;4.62;86.13;102617.00;4119371;28;20038;-70
2020/12/26 07:55:29;;;;;;;7.05;4.82;;;5.50;99.90;;;4.86;85.43;102621.06;4102434;29;20034;-70
2020/12/26 07:57:31;;;;;;;6.25;4.35;;;5.60;99.90;;;5.01;84.53;102610.72;4102509;28;20034;-70
2020/12/26 07:59:32;;;;;;;5.85;3.78;;;5.60;99.90;;;5.18;84.24;102604.66;4102368;28;20027;-70
2020/12/26 08:01:33;;;;;;;4.40;3.85;;;5.70;99.90;;;4.98;84.56;102599.56;4102466;29;20501;-70
2020/12/26 08:03:33;;;;;;;10.23;4.47;;;5.70;99.90;;;5.02;84.18;102599.31;4086509;29;20024;-70
2020/12/26 08:05:41;;;;;;;7.05;4.65;;;5.70;99.90;;;4.87;85.05;102592.22;4119448;28;20035;-70
2020/12/26 08:07:41;;;;;;;5.97;3.63;;;5.70;99.90;;;4.95;84.60;102582.25;4102612;28;20031;-70
2020/12/26 08:09:52;;;;;;;3.80;3.45;;;5.70;99.90;;;4.94;84.46;102575.31;4119661;28;20512;-69
2020/12/26 08:12:06;;;;;;;4.65;3.47;;;5.70;99.90;;;5.21;84.16;102573.09;4102516;28;20039;-70
2020/12/26 08:14:07;;;;;;;6.93;4.05;;;5.80;99.90;;;5.44;82.83;102574.53;4102348;28;20112;-70
2020/12/26 08:16:08;;;;;;;6.32;4.18;;;5.80;99.90;;;5.35;83.40;102581.09;4102307;29;20035;-69
2020/12/26 08:18:10;;;;;;;5.72;3.70;;;6.00;99.90;;;5.48;82.33;102574.31;4118465;28;20081;-69
2020/12/26 08:20:13;;;;;;;6.60;3.40;;;6.10;99.90;;;5.22;82.85;102566.09;4102294;28;20043;-69
2020/12/26 08:22:14;;;;;;;4.95;4.10;;;6.20;99.90;;;5.10;83.43;102570.19;4102376;28;20038;-70
2020/12/26 08:24:20;;;;;;;4.40;3.83;;;6.00;99.90;;;5.10;83.98;102559.72;4086452;29;20067;-70
2020/12/26 08:26:21;;;;;;;3.88;3.25;;;6.00;99.90;;;5.25;83.52;102558.09;4119544;28;20038;-69
2020/12/26 08:28:22;;;;;;;5.80;3.88;;;6.00;99.90;;;5.35;83.46;102560.16;4102300;29;20031;-70
2020/12/26 08:30:32;;;;;;;5.15;3.42;;;6.00;99.90;;;5.32;83.06;102552.47;4102150;29;20515;-70
2020/12/26 08:33:06;;;;;;;6.95;3.67;;;6.00;99.90;;;5.39;82.74;102566.94;4102525;28;20063;-70
2020/12/26 08:35:10;;;;;;;5.13;3.05;;;6.10;99.90;;;5.49;82.04;102568.19;4113684;28;20047;-69
2020/12/26 08:37:38;;;;;;;4.10;3.55;;;6.20;99.90;;;5.59;81.63;102566.75;4086439;29;20491;-70
2020/12/26 08:39:40;;;;;;;9.55;3.55;;;6.30;99.90;;;5.70;80.80;102568.00;4086887;29;20036;-69
2020/12/26 08:41:45;;;;;;;4.93;3.30;;;6.30;99.90;;;5.84;80.55;102575.94;4119350;28;20034;-70